Time;durP1;ratioP1;P1;durP2;ratioP2;P2;SDS_P1;SDS_P2;PMS_P1;PMS_P2;Temp;Humidity;BMP_temperature;BMP_pressure;BME280_temperature;BME280_humidity;BME280_pressure;Samples;Min_cycle;Max_cycle;Signal;HPM_P1;HPM_P2
2021/03/06 00:00:34;;;;;;;5.97;2.87;;;;;;;-0.24;100.00;99893.48;1706247;83;21033;-76
2021/03/06 00:03:03;;;;;;;3.77;2.60;;;;;;;-0.28;100.00;99889.34;1709937;84;21113;-76
2021/03/06 00:05:31;;;;;;;4.07;3.17;;;;;;;-0.28;100.00;99877.88;1709725;84;21053;-76
2021/03/06 00:07:59;;;;;;;2.53;1.87;;;;;;;-0.30;100.00;99870.45;1709742;84;21649;-75
2021/03/06 00:10:28;;;;;;;3.87;2.50;;;;;;;-0.32;100.00;99864.41;1709819;84;20973;-76
2021/03/06 00:12:55;;;;;;;3.13;2.67;;;;;;;-0.32;100.00;99867.93;1709765;84;21065;-74
2021/03/06 00:15:26;;;;;;;3.57;2.77;;;;;;;-0.33;100.00;99874.67;1709742;84;20965;-76
2021/03/06 00:17:54;;;;;;;5.13;2.70;;;;;;;-0.36;100.00;99880.19;1709917;84;21031;-76
2021/03/06 00:20:22;;;;;;;2.47;2.27;;;;;;;-0.39;100.00;99883.44;1715999;83;21475;-75
2021/03/06 00:22:50;;;;;;;8.07;3.97;;;;;;;-0.39;100.00;99887.88;1725148;83;21123;-75
2021/03/06 00:25:19;;;;;;;8.00;3.70;;;;;;;-0.41;100.00;99891.99;1725183;83;21096;-75
2021/03/06 00:27:47;;;;;;;6.53;3.10;;;;;;;-0.40;100.00;99896.82;1725147;83;20997;-75
2021/03/06 00:30:16;;;;;;;4.37;2.83;;;;;;;-0.39;100.00;99904.69;1751291;81;21223;-75
2021/03/06 00:32:45;;;;;;;4.00;2.40;;;;;;;-0.37;100.00;99896.62;1753728;81;21206;-75
2021/03/06 00:35:14;;;;;;;5.87;3.47;;;;;;;-0.37;100.00;99896.62;1754642;81;21597;-75
2021/03/06 00:37:42;;;;;;;4.93;3.03;;;;;;;-0.36;100.00;99894.31;1755261;81;21080;-76
2021/03/06 00:40:11;;;;;;;4.93;3.33;;;;;;;-0.33;100.00;99885.30;1755201;81;21071;-74
2021/03/06 00:42:39;;;;;;;4.80;2.90;;;;;;;-0.32;100.00;99889.19;1755237;81;21676;-76
2021/03/06 00:45:07;;;;;;;2.27;1.97;;;;;;;-0.32;100.00;99890.97;1775305;80;21436;-75
2021/03/06 00:47:35;;;;;;;9.53;3.90;;;;;;;-0.31;100.00;99890.03;1790129;80;20993;-75
2021/03/06 00:50:10;;;;;;;4.77;3.37;;;;;;;-0.34;100.00;99888.41;1790323;80;21064;-76
2021/03/06 00:52:39;;;;;;;4.43;2.80;;;;;;;-0.37;100.00;99885.13;1790344;80;21020;-76
2021/03/06 00:55:09;;;;;;;4.30;2.80;;;;;;;-0.40;100.00;99884.38;1790521;80;20970;-75
2021/03/06 00:57:37;;;;;;;5.37;3.37;;;;;;;-0.40;100.00;99890.18;1761630;80;21777;-76
2021/03/06 01:00:09;;;;;;;7.30;3.10;;;;;;;-0.41;100.00;99888.46;1790329;80;21008;-76
2021/03/06 01:02:37;;;;;;;5.87;3.47;;;;;;;-0.41;100.00;99892.45;1790463;80;21637;-75
2021/03/06 01:05:07;;;;;;;6.20;3.13;;;;;;;-0.42;100.00;99897.41;1790415;80;20926;-75
2021/03/06 01:07:35;;;;;;;3.30;2.67;;;;;;;-0.43;100.00;99893.87;1790675;80;20946;-75
2021/03/06 01:10:14;;;;;;;7.70;3.57;;;;;;;-0.45;100.00;99898.45;1790620;80;21657;-76
2021/03/06 01:12:42;;;;;;;4.70;3.47;;;;;;;-0.46;100.00;99891.45;1752530;81;21023;-76
2021/03/06 01:15:10;;;;;;;9.97;4.10;;;;;;;-0.45;100.00;99892.30;1717244;83;21600;-76
2021/03/06 01:17:38;;;;;;;4.70;3.37;;;;;;;-0.48;100.00;99888.52;1716991;83;20957;-76
2021/03/06 01:20:09;;;;;;;3.97;2.43;;;;;;;-0.50;100.00;99891.27;1716444;83;20969;-76
2021/03/06 01:22:37;;;;;;;3.20;2.60;;;;;;;-0.49;100.00;99895.64;1747331;82;21196;-75
2021/03/06 01:25:07;;;;;;;3.53;2.43;;;;;;;-0.49;100.00;99892.14;1747131;82;21632;-76
2021/03/06 01:27:35;;;;;;;5.27;3.37;;;;;;;-0.48;100.00;99889.84;1747529;82;20955;-77
2021/03/06 01:30:05;;;;;;;7.80;3.37;;;;;;;-0.50;100.00;99889.94;1747565;82;21031;-75
2021/03/06 01:32:33;;;;;;;5.07;3.03;;;;;;;-0.52;100.00;99885.21;1747567;82;21163;-77
2021/03/06 01:35:02;;;;;;;4.37;2.90;;;;;;;-0.51;100.00;99887.38;1747530;82;21841;-77
2021/03/06 01:37:30;;;;;;;3.83;2.97;;;;;;;-0.50;100.00;99889.09;1749823;82;21037;-77
2021/03/06 01:39:59;;;;;;;5.93;4.03;;;;;;;-0.51;100.00;99890.91;1750622;82;21037;-76
2021/03/06 01:42:27;;;;;;;8.30;3.77;;;;;;;-0.51;100.00;99892.70;1750757;82;21586;-77
2021/03/06 01:44:55;;;;;;;7.33;3.83;;;;;;;-0.52;100.00;99889.69;1750885;82;21125;-77
2021/03/06 01:47:23;;;;;;;5.13;3.60;;;;;;;-0.54;100.00;99889.78;1750756;82;21765;-77
2021/03/06 01:49:51;;;;;;;5.80;3.80;;;;;;;-0.55;100.00;99889.39;1750708;82;21033;-76
2021/03/06 01:52:19;;;;;;;4.57;2.37;;;;;;;-0.54;100.00;99891.59;1750623;82;21057;-77
2021/03/06 01:54:49;;;;;;;3.77;2.27;;;;;;;-0.53;100.00;99898.14;1747000;82;21076;-77
2021/03/06 01:57:17;;;;;;;4.40;3.07;;;;;;;-0.51;100.00;99909.50;1751034;82;20974;-76
2021/03/06 01:59:46;;;;;;;4.47;2.83;;;;;;;-0.49;100.00;99916.89;1751049;82;21381;-76
2021/03/06 02:02:14;;;;;;;5.63;3.63;;;;;;;-0.47;100.00;99916.30;1750833;82;20969;-77
2021/03/06 02:04:42;;;;;;;6.67;3.27;;;;;;;-0.45;100.00;99917.53;1750771;82;21088;-75
2021/03/06 02:07:10;;;;;;;6.60;3.27;;;;;;;-0.44;100.00;99917.92;1750831;82;20958;-76
2021/03/06 02:09:38;;;;;;;3.70;2.40;;;;;;;-0.43;100.00;99916.95;1790511;79;21587;-76
2021/03/06 02:12:20;;;;;;;5.97;3.17;;;;;;;-0.45;100.00;99917.53;1733155;82;21438;-76
2021/03/06 02:15:15;;;;;;;4.47;2.73;;;;;;;-0.48;100.00;99927.90;1736491;82;21111;-76
2021/03/06 02:18:10;;;;;;;4.80;3.20;;;;;;;-0.48;100.00;99937.66;1737995;82;20998;-76
2021/03/06 02:20:59;;;;;;;6.63;3.20;;;;;;;-0.49;100.00;99934.16;1736189;82;21578;-76
2021/03/06 02:24:14;;;;;;;7.13;3.37;;;;;;;-0.52;100.00;99942.32;1732425;82;21121;-74
2021/03/06 02:27:07;;;;;;;4.47;2.20;;;;;;;-0.55;100.00;99942.52;1711335;82;21392;-76
2021/03/06 02:30:08;;;;;;;3.50;3.08;;;;;;;-0.56;100.00;99946.14;1732440;82;21600;-76
2021/03/06 02:32:43;;;;;;;5.47;3.40;;;;;;;-0.57;100.00;99944.43;1732418;82;21610;-76
2021/03/06 02:35:22;;;;;;;6.20;4.00;;;;;;;-0.54;100.00;99960.66;1845737;76;25319;-76
2021/03/06 02:37:58;;;;;;;4.50;2.53;;;;;;;-0.59;100.00;99972.41;1816172;77;21035;-76
2021/03/06 02:40:26;;;;;;;4.83;3.50;;;;;;;-0.59;100.00;99976.88;1816056;78;21705;-75
2021/03/06 02:42:55;;;;;;;4.67;3.17;;;;;;;-0.58;100.00;99978.60;1815895;79;21023;-75
2021/03/06 02:45:23;;;;;;;5.27;2.90;;;;;;;-0.58;100.00;99980.77;1785283;79;20991;-76
2021/03/06 02:47:52;;;;;;;6.97;3.63;;;;;;;-0.55;100.00;99967.75;1825893;78;20985;-76
2021/03/06 02:50:20;;;;;;;6.30;3.50;;;;;;;-0.53;100.00;99973.84;1825903;78;21049;-75
2021/03/06 02:52:49;;;;;;;4.70;2.60;;;;;;;-0.50;100.00;99984.72;1825771;78;21654;-75
2021/03/06 02:55:19;;;;;;;5.53;3.47;;;;;;;-0.49;100.00;99990.42;1822778;78;20895;-75
2021/03/06 02:58:10;;;;;;;3.03;2.73;;;;;;;-0.49;100.00;99985.95;1825629;78;20990;-75
2021/03/06 03:01:01;;;;;;;3.03;2.53;;;;;;;-0.48;100.00;99991.66;1825675;78;21017;-75
2021/03/06 03:04:10;;;;;;;7.43;4.23;;;;;;;-0.47;100.00;99994.66;1825600;78;20922;-74
2021/03/06 03:06:38;;;;;;;7.13;3.57;;;;;;;-0.51;100.00;99997.62;1822992;78;21916;-75
2021/03/06 03:09:19;;;;;;;3.60;2.37;;;;;;;-0.57;100.00;100005.52;1825529;78;21021;-73
2021/03/06 03:12:14;;;;;;;3.77;2.57;;;;;;;-0.58;100.00;100005.16;1825529;78;21049;-74
2021/03/06 03:14:53;;;;;;;2.90;2.37;;;;;;;-0.62;100.00;99998.33;1805314;78;21079;-76
2021/03/06 03:17:26;;;;;;;3.00;1.70;;;;;;;-0.63;100.00;99994.83;1825504;78;20974;-74
2021/03/06 03:19:59;;;;;;;3.20;2.37;;;;;;;-0.60;100.00;100001.27;1825489;78;21368;-73
2021/03/06 03:22:31;;;;;;;4.93;2.70;;;;;;;-0.56;100.00;100003.25;1825344;78;21029;-74
2021/03/06 03:24:59;;;;;;;6.13;3.27;;;;;;;-0.51;100.00;100002.92;1825407;78;20991;-74
2021/03/06 03:27:27;;;;;;;6.77;3.67;;;;;;;-0.49;100.00;100007.69;1825472;78;21006;-74
2021/03/06 03:29:55;;;;;;;4.27;2.80;;;;;;;-0.50;100.00;100002.83;1814207;78;21001;-75
2021/03/06 03:32:23;;;;;;;3.57;2.67;;;;;;;-0.52;100.00;100008.73;1777872;79;21660;-74
2021/03/06 03:34:52;;;;;;;6.07;3.40;;;;;;;-0.60;100.00;100011.89;1788103;79;21009;-74
2021/03/06 03:37:19;;;;;;;3.17;2.63;;;;;;;-0.68;100.00;100004.89;1721313;82;20949;-74
2021/03/06 03:39:47;;;;;;;5.57;2.80;;;;;;;-0.76;100.00;100003.23;1770068;81;20993;-74
2021/03/06 03:42:16;;;;;;;2.30;2.00;;;;;;;-0.82;100.00;100003.13;1770119;81;21017;-75
2021/03/06 03:44:44;;;;;;;2.20;1.90;;;;;;;-0.85;100.00;99999.83;1739644;81;22407;-74
2021/03/06 03:47:12;;;;;;;10.53;4.53;;;;;;;-0.89;100.00;99999.17;1769555;81;20985;-75
2021/03/06 03:49:40;;;;;;;4.43;3.07;;;;;;;-0.94;100.00;99995.95;1739432;82;20962;-74
2021/03/06 03:52:08;;;;;;;4.63;2.30;;;;;;;-1.01;100.00;99992.87;1769600;81;21017;-74
2021/03/06 03:54:36;;;;;;;6.17;3.30;;;;;;;-1.05;100.00;99990.50;1739393;82;21492;-74
2021/03/06 03:57:04;;;;;;;4.13;3.40;;;;;;;-1.09;100.00;99983.20;1769626;81;21377;-75
2021/03/06 03:59:32;;;;;;;4.93;3.00;;;;;;;-1.12;100.00;99990.52;1739355;81;21021;-76
2021/03/06 04:02:00;;;;;;;3.23;2.13;;;;;;;-1.17;100.00;99998.30;1769602;81;21029;-75
2021/03/06 04:04:31;;;;;;;3.43;2.30;;;;;;;-1.19;100.00;100017.45;1759971;81;21032;-74
2021/03/06 04:07:01;;;;;;;6.93;3.20;;;;;;;-1.21;100.00;100015.83;1801449;79;21043;-75
2021/03/06 04:09:31;;;;;;;2.70;2.03;;;;;;;-1.22;100.00;100009.68;1791932;80;21151;-75
2021/03/06 04:11:59;;;;;;;2.47;1.70;;;;;;;-1.23;100.00;100024.36;1800875;79;21005;-75
2021/03/06 04:14:28;;;;;;;5.20;2.67;;;;;;;-1.23;100.00;100028.34;1800660;79;20938;-76
2021/03/06 04:16:56;;;;;;;4.27;1.70;;;;;;;-1.25;100.00;100032.41;1800657;79;21009;-76
2021/03/06 04:19:24;;;;;;;3.13;1.63;;;;;;;-1.28;100.00;100023.31;1800958;79;20993;-74
2021/03/06 04:21:53;;;;;;;4.13;2.10;;;;;;;-1.27;100.00;100025.03;1747665;79;21375;-76
2021/03/06 04:24:22;;;;;;;2.27;2.00;;;;;;;-1.29;100.00;100023.41;1800921;79;21048;-74
2021/03/06 04:26:50;;;;;;;2.50;1.90;;;;;;;-1.30;100.00;100025.70;1801063;79;21589;-74
2021/03/06 04:29:21;;;;;;;1.67;1.10;;;;;;;-1.32;100.00;100012.52;1785336;79;20991;-74
2021/03/06 04:31:49;;;;;;;1.60;1.43;;;;;;;-1.36;100.00;100011.86;1710261;84;21058;-76
2021/03/06 04:34:17;;;;;;;1.87;1.77;;;;;;;-1.39;100.00;100009.87;1710224;82;21215;-76
2021/03/06 04:36:45;;;;;;;2.83;2.10;;;;;;;-1.40;100.00;100013.47;1710201;84;21034;-74
2021/03/06 04:39:13;;;;;;;1.23;1.13;;;;;;;-1.43;100.00;100019.83;1710337;84;21018;-75
2021/03/06 04:41:41;;;;;;;3.37;2.20;;;;;;;-1.46;100.00;100034.59;1710268;84;21082;-76
2021/03/06 04:44:10;;;;;;;5.40;1.83;;;;;;;-1.47;100.00;100046.63;1710423;84;20958;-75
2021/03/06 04:46:38;;;;;;;5.13;1.73;;;;;;;-1.49;100.00;100048.03;1710679;84;22359;-75
2021/03/06 04:49:06;;;;;;;1.57;1.47;;;;;;;-1.49;100.00;100056.47;1710475;84;21127;-76
2021/03/06 04:51:34;;;;;;;1.43;1.23;;;;;;;-1.48;100.00;100052.89;1710482;84;21049;-75
2021/03/06 04:54:03;;;;;;;1.20;1.13;;;;;;;-1.48;100.00;100051.56;1710439;84;21037;-76
2021/03/06 04:56:31;;;;;;;4.83;2.43;;;;;;;-1.50;100.00;100053.46;1710596;84;21053;-76
2021/03/06 04:58:59;;;;;;;2.60;1.77;;;;;;;-1.51;100.00;100061.87;1710580;84;21666;-75
2021/03/06 05:01:27;;;;;;;2.40;2.23;;;;;;;-1.51;100.00;100065.84;1710488;84;21014;-75
2021/03/06 05:03:55;;;;;;;1.70;1.60;;;;;;;-1.53;100.00;100067.27;1710713;84;20978;-75
2021/03/06 05:06:25;;;;;;;2.50;1.80;;;;;;;-1.53;100.00;100069.91;1707461;84;21046;-75
2021/03/06 05:08:53;;;;;;;4.43;2.23;;;;;;;-1.53;100.00;100076.55;1710528;82;21034;-75
2021/03/06 05:11:21;;;;;;;3.53;1.47;;;;;;;-1.51;100.00;100089.72;1710730;84;21206;-76
2021/03/06 05:13:49;;;;;;;4.07;2.10;;;;;;;-1.49;100.00;100102.41;1711085;82;21026;-76
2021/03/06 05:16:17;;;;;;;4.37;2.83;;;;;;;-1.49;100.00;100109.03;1710841;84;21722;-75
2021/03/06 05:18:45;;;;;;;3.40;2.37;;;;;;;-1.50;100.00;100117.95;1710916;84;21180;-75
2021/03/06 05:21:13;;;;;;;2.53;1.80;;;;;;;-1.50;100.00;100125.07;1710726;84;21046;-76
2021/03/06 05:23:41;;;;;;;2.17;1.30;;;;;;;-1.51;100.00;100129.98;1710942;82;21147;-76
2021/03/06 05:26:09;;;;;;;2.17;1.97;;;;;;;-1.49;100.00;100125.43;1710856;84;21010;-76
2021/03/06 05:28:37;;;;;;;1.37;1.27;;;;;;;-1.48;100.00;100133.30;1740887;81;21592;-75
2021/03/06 05:31:05;;;;;;;2.20;1.53;;;;;;;-1.46;100.00;100143.82;1772272;80;20984;-75
2021/03/06 05:33:34;;;;;;;3.80;2.13;;;;;;;-1.46;100.00;100141.17;1768176;81;21015;-76
2021/03/06 05:36:08;;;;;;;3.00;2.10;;;;;;;-1.47;100.00;100131.49;1760758;80;21499;-76
2021/03/06 05:38:36;;;;;;;2.90;2.67;;;;;;;-1.46;100.00;100131.89;1729822;83;21639;-76
2021/03/06 05:41:04;;;;;;;5.73;2.73;;;;;;;-1.43;100.00;100137.02;1729944;83;21171;-77
2021/03/06 05:43:33;;;;;;;2.90;2.47;;;;;;;-1.39;100.00;100143.34;1729900;83;21047;-77
2021/03/06 05:46:01;;;;;;;4.63;2.33;;;;;;;-1.35;100.00;100135.61;1730273;83;20979;-75
2021/03/06 05:48:30;;;;;;;4.97;3.37;;;;;;;-1.32;100.00;100138.53;1729781;83;21881;-76
2021/03/06 05:51:01;;;;;;;5.90;3.43;;;;;;;-1.31;100.00;100152.20;1729983;83;21153;-75
2021/03/06 05:53:30;;;;;;;10.07;4.90;;;;;;;-1.29;100.00;100155.61;1729936;83;21056;-76
2021/03/06 05:56:00;;;;;;;17.60;8.10;;;;;;;-1.28;100.00;100159.10;1729990;83;20900;-76
2021/03/06 05:58:32;;;;;;;13.17;5.90;;;;;;;-1.28;100.00;100158.62;1706624;83;20951;-76
2021/03/06 06:01:00;;;;;;;32.90;12.40;;;;;;;-1.24;100.00;100169.90;1705639;83;21684;-78
2021/03/06 06:03:28;;;;;;;15.60;6.67;;;;;;;-1.22;100.00;100167.55;1696046;84;21063;-76
2021/03/06 06:05:56;;;;;;;21.13;9.47;;;;;;;-1.19;100.00;100154.56;1695972;84;21064;-76
2021/03/06 06:08:26;;;;;;;9.63;4.47;;;;;;;-1.19;100.00;100166.05;1695911;82;20993;-76
2021/03/06 06:10:54;;;;;;;12.10;5.93;;;;;;;-1.18;100.00;100169.55;1762792;80;21001;-76
2021/03/06 06:13:22;;;;;;;13.13;5.77;;;;;;;-1.18;100.00;100178.35;1763204;81;21798;-75
2021/03/06 06:15:53;;;;;;;13.67;5.53;;;;;;;-1.16;100.00;100173.80;1762619;81;21096;-77
2021/03/06 06:18:22;;;;;;;4.40;2.43;;;;;;;-1.12;100.00;100176.27;1763313;81;21498;-81
2021/03/06 06:20:50;;;;;;;7.53;4.23;;;;;;;-1.15;100.00;100182.16;1763637;80;20954;-83
2021/03/06 06:23:19;;;;;;;13.13;6.57;;;;;;;-1.15;100.00;100183.48;1714761;81;21036;-82
2021/03/06 06:25:47;;;;;;;8.67;4.17;;;;;;;-1.11;100.00;100192.59;1763207;80;21377;-81
2021/03/06 06:28:17;;;;;;;9.90;5.43;;;;;;;-1.10;100.00;100188.48;1766195;80;21050;-79
2021/03/06 06:31:11;;;;;;;10.53;4.40;;;;;;;-1.06;100.00;100187.83;1778422;80;21399;-77
2021/03/06 06:33:40;;;;;;;12.13;4.83;;;;;;;-1.02;100.00;100203.48;1730982;81;21042;-75
2021/03/06 06:36:08;;;;;;;3.87;2.63;;;;;;;-0.92;100.00;100191.85;1733064;81;21020;-76
2021/03/06 06:38:44;;;;;;;10.10;4.93;;;;;;;-0.87;100.00;100199.03;1737161;81;22195;-74
2021/03/06 06:41:13;;;;;;;17.33;7.37;;;;;;;-0.83;100.00;100191.77;1693032;84;21023;-76
2021/03/06 06:43:41;;;;;;;9.23;5.17;;;;;;;-0.78;100.00;100187.88;1693200;84;21062;-77
2021/03/06 06:46:10;;;;;;;4.93;3.27;;;;;;;-0.74;100.00;100187.66;1715294;82;21678;-75
2021/03/06 06:48:59;;;;;;;21.97;8.87;;;;;;;-0.69;100.00;100195.74;1727554;82;21182;-74
2021/03/06 06:51:26;;;;;;;6.90;3.70;;;;;;;-0.67;100.00;100194.33;1752817;80;21872;-79
2021/03/06 06:54:12;;;;;;;12.50;6.23;;;;;;;-0.68;100.00;100192.60;1752835;82;21031;-76
2021/03/06 06:56:40;;;;;;;9.93;4.77;;;;;;;-0.71;100.00;100182.16;1753365;82;21051;-78
2021/03/06 06:59:09;;;;;;;11.23;5.73;;;;;;;-0.71;100.00;100171.05;1752964;82;21016;-78
2021/03/06 07:01:37;;;;;;;8.80;4.23;;;;;;;-0.70;100.00;100183.40;1752324;82;21529;-77
2021/03/06 07:04:11;;;;;;;9.73;5.00;;;;;;;-0.64;100.00;100172.86;1752792;82;21204;-78
2021/03/06 07:06:41;;;;;;;12.17;4.27;;;;;;;-0.58;100.00;100170.68;1733907;80;21084;-80
2021/03/06 07:09:13;;;;;;;8.70;4.30;;;;;;;-0.45;100.00;100163.27;1706958;83;21049;-82
2021/03/06 07:11:46;;;;;;;19.27;9.23;;;;;;;-0.31;100.00;100175.67;1724607;83;21020;-83
2021/03/06 07:14:35;;;;;;;17.43;7.83;;;;;;;-0.15;100.00;100172.88;1731428;83;21009;-83
2021/03/06 07:17:04;;;;;;;9.27;4.40;;;;;;;-0.01;100.00;100156.39;1731230;83;21428;-83
2021/03/06 07:19:37;;;;;;;8.43;4.80;;;;;;;0.15;100.00;100157.56;1732523;82;21040;-83
2021/03/06 07:22:07;;;;;;;7.00;3.97;;;;;;;0.28;100.00;100160.26;1728924;83;21013;-84
2021/03/06 07:24:36;;;;;;;9.83;5.13;;;;;;;0.42;100.00;100167.32;1722353;83;21048;-75
2021/03/06 07:27:05;;;;;;;6.53;3.90;;;;;;;0.62;100.00;100159.34;1672229;85;21697;-73
2021/03/06 07:29:33;;;;;;;5.07;2.63;;;;;;;0.83;100.00;100167.64;1717853;82;21377;-73
2021/03/06 07:32:01;;;;;;;2.53;2.23;;;;;;;0.99;100.00;100163.92;1739857;82;21072;-73
2021/03/06 07:34:32;;;;;;;7.47;3.07;;;;;;;1.11;100.00;100167.91;1711913;83;21048;-73
2021/03/06 07:37:06;;;;;;;4.50;2.57;;;;;;;1.20;100.00;100172.23;1730825;81;21016;-74
2021/03/06 07:39:44;;;;;;;5.73;2.50;;;;;;;1.24;100.00;100168.38;1769433;81;20988;-76
2021/03/06 07:42:23;;;;;;;2.17;1.93;;;;;;;1.31;100.00;100166.53;1761608;80;21064;-75
2021/03/06 07:44:53;;;;;;;5.93;3.57;;;;;;;1.46;100.00;100169.06;1761782;80;21567;-74
2021/03/06 07:47:23;;;;;;;7.37;3.80;;;;;;;1.58;100.00;100173.52;1753239;80;21009;-73
2021/03/06 07:49:51;;;;;;;4.33;3.07;;;;;;;1.68;100.00;100179.89;1766500;80;21036;-76
2021/03/06 07:52:19;;;;;;;6.63;2.60;;;;;;;1.79;100.00;100188.44;1765413;81;21102;-75
2021/03/06 07:54:47;;;;;;;6.33;3.00;;;;;;;1.84;100.00;100184.97;1765253;81;21813;-75
2021/03/06 07:57:15;;;;;;;7.50;3.50;;;;;;;1.90;100.00;100179.17;1759284;81;20993;-75
2021/03/06 07:59:49;;;;;;;3.23;2.93;;;;;;;1.97;100.00;100178.25;1765301;81;21115;-75
2021/03/06 08:02:32;;;;;;;8.50;3.83;;;;;;;2.05;100.00;100185.21;1765086;81;20999;-74
2021/03/06 08:05:02;;;;;;;8.40;4.40;;;;;;;2.12;100.00;100184.75;1696043;81;21040;-75
2021/03/06 08:07:44;;;;;;;21.53;9.80;;;;;;;2.11;100.00;100184.36;1699484;84;21573;-74
2021/03/06 08:10:24;;;;;;;15.60;6.93;;;;;;;2.09;100.00;100178.67;1820042;77;26858;-75
2021/03/06 08:12:59;;;;;;;10.07;5.67;;;;;;;1.98;100.00;100176.42;1827052;77;21614;-74
2021/03/06 08:15:32;;;;;;;7.90;4.60;;;;;;;1.93;100.00;100167.44;1821284;77;22340;-75
2021/03/06 08:18:01;;;;;;;5.23;3.33;;;;;;;1.90;100.00;100165.84;1822531;77;21032;-75
2021/03/06 08:20:34;;;;;;;5.37;3.53;;;;;;;1.92;100.00;100171.55;1821920;78;21756;-74
2021/03/06 08:23:19;;;;;;;8.43;4.30;;;;;;;1.96;100.00;100171.20;1825382;77;21001;-77
2021/03/06 08:26:18;;;;;;;3.37;3.00;;;;;;;2.03;100.00;100180.94;1829034;77;20958;-79
2021/03/06 08:28:46;;;;;;;7.93;4.33;;;;;;;2.12;100.00;100184.25;1838872;77;22377;-77
2021/03/06 08:31:37;;;;;;;12.47;6.00;;;;;;;2.16;100.00;100187.55;1825901;77;21032;-76
2021/03/06 08:34:37;;;;;;;17.87;8.00;;;;;;;2.21;100.00;100199.61;1841192;76;20918;-75
2021/03/06 08:37:20;;;;;;;6.80;4.40;;;;;;;2.21;100.00;100198.73;1802603;79;21576;-74
2021/03/06 08:39:53;;;;;;;17.90;8.08;;;;;;;2.21;100.00;100206.73;1802623;79;21122;-73
2021/03/06 08:42:23;;;;;;;;;;;;;;;2.16;100.00;100227.11;1805287;79;21448;-75
2021/03/06 08:44:54;;;;;;;13.13;6.77;;;;;;;2.07;100.00;100227.30;1730470;80;20558;-75
2021/03/06 08:47:28;;;;;;;19.73;8.83;;;;;;;2.00;100.00;100232.70;1777460;80;21048;-75
2021/03/06 08:49:59;;;;;;;14.80;6.90;;;;;;;1.89;100.00;100227.28;1783696;80;20984;-74
2021/03/06 08:52:28;;;;;;;7.73;4.33;;;;;;;1.77;100.00;100230.83;1783405;80;20957;-74
2021/03/06 08:54:58;;;;;;;10.83;4.37;;;;;;;1.69;100.00;100238.89;1783255;80;21657;-75
2021/03/06 08:57:34;;;;;;;22.17;9.13;;;;;;;1.65;100.00;100245.91;1783498;80;21087;-73
2021/03/06 09:00:20;;;;;;;14.57;7.43;;;;;;;1.68;100.00;100247.87;1780108;80;21061;-74
2021/03/06 09:02:50;;;;;;;10.25;5.22;;;;;;;1.76;100.00;100258.47;1783693;80;21032;-75
2021/03/06 09:05:25;;;;;;;11.80;5.43;;;;;;;1.71;100.00;100258.30;1800319;79;20992;-77
2021/03/06 09:08:00;;;;;;;9.67;4.60;;;;;;;1.62;100.00;100253.62;1881035;76;26419;-77
2021/03/06 09:10:44;;;;;;;7.47;4.37;;;;;;;1.61;100.00;100259.05;1839374;77;20941;-79
2021/03/06 09:13:21;;;;;;;11.90;5.30;;;;;;;1.62;100.00;100256.28;1834911;77;21054;-79
2021/03/06 09:15:52;;;;;;;5.70;3.63;;;;;;;1.54;100.00;100267.98;1805583;78;20946;-80
2021/03/06 09:18:26;;;;;;;6.17;3.30;;;;;;;1.47;100.00;100266.22;1805111;78;20978;-79
2021/03/06 09:21:00;;;;;;;7.47;3.57;;;;;;;1.30;100.00;100266.05;1813486;78;21026;-80
2021/03/06 09:23:35;;;;;;;8.23;4.00;;;;;;;1.21;100.00;100264.03;1809067;78;21000;-80
2021/03/06 09:26:18;;;;;;;5.50;2.77;;;;;;;1.26;100.00;100266.39;1826914;75;26549;-78
2021/03/06 09:28:49;;;;;;;4.13;2.83;;;;;;;1.29;100.00;100266.15;1784525;77;21011;-77
2021/03/06 09:31:30;;;;;;;6.60;3.00;;;;;;;1.37;100.00;100263.82;1825596;75;27287;-74
2021/03/06 09:33:59;;;;;;;8.00;3.10;;;;;;;1.43;100.00;100270.04;1721718;81;21020;-74
2021/03/06 09:36:29;;;;;;;6.23;3.40;;;;;;;1.56;100.00;100265.19;1755656;79;22217;-75
2021/03/06 09:38:59;;;;;;;8.47;3.30;;;;;;;1.59;100.00;100265.82;1746453;79;21060;-81
2021/03/06 09:41:33;;;;;;;6.70;3.30;;;;;;;1.61;100.00;100264.38;1745886;81;20992;-77
2021/03/06 09:44:17;;;;;;;7.00;3.10;;;;;;;1.63;100.00;100271.33;1820049;77;26897;-73
2021/03/06 09:46:46;;;;;;;7.43;3.67;;;;;;;1.61;100.00;100277.71;1788995;78;20970;-73
2021/03/06 09:49:15;;;;;;;8.97;4.20;;;;;;;1.54;100.00;100279.98;1751013;81;21199;-74
2021/03/06 09:51:51;;;;;;;11.80;5.50;;;;;;;1.50;100.00;100281.97;1792697;79;20949;-77
2021/03/06 09:54:22;;;;;;;2.90;2.50;;;;;;;1.46;100.00;100294.30;1782229;79;21120;-76
2021/03/06 09:57:01;;;;;;;5.17;2.93;;;;;;;1.38;100.00;100287.31;1786164;79;21547;-77
2021/03/06 09:59:32;;;;;;;2.63;2.27;;;;;;;1.32;100.00;100281.45;1790518;79;21085;-74
2021/03/06 10:02:05;;;;;;;5.23;2.97;;;;;;;1.32;100.00;100283.27;1782340;79;21698;-76
2021/03/06 10:04:34;;;;;;;3.17;2.87;;;;;;;1.30;100.00;100274.53;1773965;80;21685;-76
2021/03/06 10:07:08;;;;;;;14.97;6.20;;;;;;;1.32;100.00;100276.12;1781742;80;21080;-77
2021/03/06 10:09:37;;;;;;;3.90;2.67;;;;;;;1.37;100.00;100273.63;1770179;80;21390;-76
2021/03/06 10:12:07;;;;;;;6.17;3.20;;;;;;;1.41;100.00;100272.45;1773422;80;21243;-74
2021/03/06 10:14:35;;;;;;;3.50;2.20;;;;;;;1.40;100.00;100270.73;1771107;80;21191;-73
2021/03/06 10:19:51;;;;;;;8.83;3.87;;;;;;;1.46;100.00;100271.16;1827069;77;26745;-75
2021/03/06 10:22:20;;;;;;;7.13;3.83;;;;;;;1.42;100.00;100264.84;1833106;77;21013;-77
2021/03/06 10:24:58;;;;;;;12.37;3.83;;;;;;;1.42;100.00;100258.19;1847104;77;21356;-74
2021/03/06 10:27:44;;;;;;;4.77;2.93;;;;;;;1.46;100.00;100267.66;1832947;77;21001;-76
2021/03/06 10:33:01;;;;;;;4.67;2.33;;;;;;;1.48;100.00;100268.40;1753219;80;21064;-78
2021/03/06 10:35:42;;;;;;;4.93;2.70;;;;;;;1.49;100.00;100284.28;1754038;80;21004;-79
2021/03/06 10:38:28;;;;;;;6.33;2.70;;;;;;;1.62;100.00;100276.28;1787651;77;26857;-78
2021/03/06 10:41:00;;;;;;;11.10;3.70;;;;;;;1.76;100.00;100281.13;1750317;80;21027;-75
2021/03/06 10:43:39;;;;;;;8.75;3.83;;;;;;;1.88;100.00;100277.10;1753439;81;21263;-77
2021/03/06 10:46:19;;;;;;;6.33;3.60;;;;;;;2.03;100.00;100282.30;1760771;81;20990;-76
2021/03/06 10:49:10;;;;;;;7.47;3.83;;;;;;;2.25;100.00;100270.45;1756552;81;20943;-79
2021/03/06 10:51:49;;;;;;;6.97;3.63;;;;;;;2.50;100.00;100269.98;1755618;81;20990;-82
2021/03/06 10:54:19;;;;;;;7.13;3.80;;;;;;;2.72;100.00;100261.20;1769262;80;20927;-79
2021/03/06 10:56:48;;;;;;;5.47;2.87;;;;;;;2.90;100.00;100260.30;1769679;80;22322;-73
2021/03/06 10:59:21;;;;;;;6.70;3.33;;;;;;;3.07;100.00;100262.19;1775470;80;20978;-79
2021/03/06 11:01:53;;;;;;;6.33;3.53;;;;;;;3.21;100.00;100255.30;1764078;80;21074;-75
2021/03/06 11:04:35;;;;;;;6.03;3.07;;;;;;;3.33;100.00;100259.69;1776808;80;21021;-76
2021/03/06 11:07:07;;;;;;;5.77;2.90;;;;;;;3.48;100.00;100260.30;1780233;80;21117;-76
2021/03/06 11:09:38;;;;;;;8.57;3.23;;;;;;;3.61;100.00;100258.39;1774551;80;20982;-77
2021/03/06 11:12:23;;;;;;;3.13;2.83;;;;;;;3.79;100.00;100259.23;1774726;80;20966;-77
2021/03/06 11:15:15;;;;;;;9.70;3.87;;;;;;;4.01;100.00;100259.70;1753222;81;21084;-79
2021/03/06 11:17:48;;;;;;;4.70;2.93;;;;;;;4.32;100.00;100247.83;1765049;80;20978;-75
2021/03/06 11:20:17;;;;;;;4.33;2.17;;;;;;;4.34;100.00;100245.90;1765632;80;21507;-76
2021/03/06 11:22:45;;;;;;;4.53;2.57;;;;;;;4.19;100.00;100250.16;1775618;80;21614;-75
2021/03/06 11:25:15;;;;;;;5.23;3.00;;;;;;;4.05;100.00;100248.26;1753546;81;21069;-79
2021/03/06 11:28:02;;;;;;;5.03;3.03;;;;;;;3.77;100.00;100252.67;1768709;80;21033;-75
2021/03/06 11:30:42;;;;;;;4.27;2.60;;;;;;;3.44;100.00;100245.48;1752455;79;21045;-75
2021/03/06 11:33:18;;;;;;;5.57;3.07;;;;;;;3.17;100.00;100253.34;1723303;82;21004;-74
2021/03/06 11:35:47;;;;;;;2.20;1.83;;;;;;;3.01;100.00;100255.01;1738996;82;21603;-77
2021/03/06 11:38:17;;;;;;;4.07;2.20;;;;;;;2.83;100.00;100255.05;1754583;80;21068;-76
2021/03/06 11:40:50;;;;;;;3.33;2.23;;;;;;;2.57;100.00;100257.03;1766313;80;21491;-76
2021/03/06 11:43:20;;;;;;;2.20;1.83;;;;;;;2.39;100.00;100263.23;1771437;80;21053;-81
2021/03/06 11:45:53;;;;;;;1.73;1.60;;;;;;;2.36;100.00;100262.98;1750298;81;20943;-80
2021/03/06 11:48:22;;;;;;;;;;;;;;;2.53;100.00;100260.38;1761635;81;21373;-81
2021/03/06 11:50:58;;;;;;;2.57;2.33;;;;;;;2.80;100.00;100251.30;1740144;81;20192;-81